sensor_id;sensor_type;location;lat;lon;timestamp;P1;durP1;ratioP1;P2;durP2;ratioP2
18435;SDS011;9346;52.006;4.720;2023-07-30T00:00:51;3.43;;;2.00;;
18435;SDS011;9346;52.006;4.720;2023-07-30T00:03:18;5.83;;;1.43;;
18435;SDS011;9346;52.006;4.720;2023-07-30T00:05:51;4.20;;;1.70;;
18435;SDS011;9346;52.006;4.720;2023-07-30T00:08:18;7.17;;;2.17;;
18435;SDS011;9346;52.006;4.720;2023-07-30T00:10:45;5.70;;;1.73;;
18435;SDS011;9346;52.006;4.720;2023-07-30T00:13:13;8.50;;;1.80;;
18435;SDS011;9346;52.006;4.720;2023-07-30T00:15:42;8.80;;;1.60;;
18435;SDS011;9346;52.006;4.720;2023-07-30T00:18:09;7.13;;;1.73;;
18435;SDS011;9346;52.006;4.720;2023-07-30T00:20:36;4.60;;;1.93;;
18435;SDS011;9346;52.006;4.720;2023-07-30T00:23:04;4.33;;;2.03;;
18435;SDS011;9346;52.006;4.720;2023-07-30T00:25:31;7.23;;;1.77;;
18435;SDS011;9346;52.006;4.720;2023-07-30T00:27:58;9.27;;;1.77;;
18435;SDS011;9346;52.006;4.720;2023-07-30T00:30:25;6.53;;;2.07;;
18435;SDS011;9346;52.006;4.720;2023-07-30T00:32:53;5.00;;;1.60;;
18435;SDS011;9346;52.006;4.720;2023-07-30T00:35:21;5.07;;;1.70;;
18435;SDS011;9346;52.006;4.720;2023-07-30T00:37:47;3.73;;;1.50;;
18435;SDS011;9346;52.006;4.720;2023-07-30T00:40:14;2.90;;;1.80;;
18435;SDS011;9346;52.006;4.720;2023-07-30T00:42:41;6.40;;;1.80;;
18435;SDS011;9346;52.006;4.720;2023-07-30T00:45:09;5.77;;;1.80;;
18435;SDS011;9346;52.006;4.720;2023-07-30T00:47:37;5.60;;;1.60;;
18435;SDS011;9346;52.006;4.720;2023-07-30T00:50:07;3.03;;;1.70;;
18435;SDS011;9346;52.006;4.720;2023-07-30T00:52:37;6.73;;;2.10;;
18435;SDS011;9346;52.006;4.720;2023-07-30T00:55:04;3.47;;;1.80;;
18435;SDS011;9346;52.006;4.720;2023-07-30T00:57:33;2.23;;;1.60;;
18435;SDS011;9346;52.006;4.720;2023-07-30T01:00:02;3.27;;;1.57;;
18435;SDS011;9346;52.006;4.720;2023-07-30T01:02:32;2.80;;;1.43;;
18435;SDS011;9346;52.006;4.720;2023-07-30T01:04:59;4.40;;;1.60;;
18435;SDS011;9346;52.006;4.720;2023-07-30T01:07:30;7.30;;;1.57;;
18435;SDS011;9346;52.006;4.720;2023-07-30T01:09:58;4.53;;;1.83;;
18435;SDS011;9346;52.006;4.720;2023-07-30T01:12:26;5.57;;;2.13;;
18435;SDS011;9346;52.006;4.720;2023-07-30T01:14:56;3.60;;;1.73;;
18435;SDS011;9346;52.006;4.720;2023-07-30T01:17:25;4.37;;;1.50;;
18435;SDS011;9346;52.006;4.720;2023-07-30T01:19:52;7.00;;;1.60;;
18435;SDS011;9346;52.006;4.720;2023-07-30T01:22:22;5.33;;;1.60;;
18435;SDS011;9346;52.006;4.720;2023-07-30T01:24:50;5.47;;;2.03;;
18435;SDS011;9346;52.006;4.720;2023-07-30T01:27:19;5.38;;;2.03;;
18435;SDS011;9346;52.006;4.720;2023-07-30T01:29:51;3.23;;;1.57;;
18435;SDS011;9346;52.006;4.720;2023-07-30T01:32:23;3.17;;;1.40;;
18435;SDS011;9346;52.006;4.720;2023-07-30T01:34:53;6.40;;;2.03;;
18435;SDS011;9346;52.006;4.720;2023-07-30T01:37:23;4.70;;;1.87;;
18435;SDS011;9346;52.006;4.720;2023-07-30T01:39:52;5.17;;;1.53;;
18435;SDS011;9346;52.006;4.720;2023-07-30T01:42:20;5.87;;;2.07;;
18435;SDS011;9346;52.006;4.720;2023-07-30T01:44:47;3.03;;;1.63;;
18435;SDS011;9346;52.006;4.720;2023-07-30T01:47:14;4.17;;;1.73;;
18435;SDS011;9346;52.006;4.720;2023-07-30T01:49:41;6.77;;;1.93;;
18435;SDS011;9346;52.006;4.720;2023-07-30T01:52:08;5.27;;;2.03;;
18435;SDS011;9346;52.006;4.720;2023-07-30T01:54:36;5.77;;;2.00;;
18435;SDS011;9346;52.006;4.720;2023-07-30T01:57:03;4.50;;;1.50;;
18435;SDS011;9346;52.006;4.720;2023-07-30T01:59:30;6.23;;;2.30;;
18435;SDS011;9346;52.006;4.720;2023-07-30T02:01:58;10.70;;;2.30;;
18435;SDS011;9346;52.006;4.720;2023-07-30T02:04:25;4.73;;;2.10;;
18435;SDS011;9346;52.006;4.720;2023-07-30T02:06:51;2.83;;;1.60;;
18435;SDS011;9346;52.006;4.720;2023-07-30T02:09:18;7.37;;;2.10;;
18435;SDS011;9346;52.006;4.720;2023-07-30T02:11:46;3.20;;;2.17;;
18435;SDS011;9346;52.006;4.720;2023-07-30T02:14:17;7.00;;;1.90;;
18435;SDS011;9346;52.006;4.720;2023-07-30T02:16:44;4.50;;;1.80;;
18435;SDS011;9346;52.006;4.720;2023-07-30T02:19:11;6.53;;;2.43;;
18435;SDS011;9346;52.006;4.720;2023-07-30T02:21:38;4.17;;;1.97;;
18435;SDS011;9346;52.006;4.720;2023-07-30T02:24:07;6.10;;;1.97;;
18435;SDS011;9346;52.006;4.720;2023-07-30T02:26:36;5.53;;;1.70;;
18435;SDS011;9346;52.006;4.720;2023-07-30T02:29:05;9.20;;;2.63;;
18435;SDS011;9346;52.006;4.720;2023-07-30T02:31:33;5.63;;;2.20;;
18435;SDS011;9346;52.006;4.720;2023-07-30T02:34:00;7.43;;;2.20;;
18435;SDS011;9346;52.006;4.720;2023-07-30T02:36:27;8.67;;;2.60;;
18435;SDS011;9346;52.006;4.720;2023-07-30T02:38:54;5.70;;;1.63;;
18435;SDS011;9346;52.006;4.720;2023-07-30T02:41:22;5.10;;;1.93;;
18435;SDS011;9346;52.006;4.720;2023-07-30T02:43:49;4.60;;;2.43;;
18435;SDS011;9346;52.006;4.720;2023-07-30T02:46:18;3.37;;;2.43;;
18435;SDS011;9346;52.006;4.720;2023-07-30T02:48:45;10.00;;;2.93;;
18435;SDS011;9346;52.006;4.720;2023-07-30T02:51:11;5.97;;;2.40;;
18435;SDS011;9346;52.006;4.720;2023-07-30T02:53:38;7.63;;;2.27;;
18435;SDS011;9346;52.006;4.720;2023-07-30T02:56:05;3.80;;;1.97;;
18435;SDS011;9346;52.006;4.720;2023-07-30T02:58:33;5.10;;;2.23;;
18435;SDS011;9346;52.006;4.720;2023-07-30T03:01:04;9.50;;;3.07;;
18435;SDS011;9346;52.006;4.720;2023-07-30T03:03:34;7.43;;;2.10;;
18435;SDS011;9346;52.006;4.720;2023-07-30T03:06:01;5.20;;;2.43;;
18435;SDS011;9346;52.006;4.720;2023-07-30T03:08:28;9.47;;;2.37;;
18435;SDS011;9346;52.006;4.720;2023-07-30T03:10:57;6.10;;;2.50;;
18435;SDS011;9346;52.006;4.720;2023-07-30T03:13:24;9.23;;;2.13;;
18435;SDS011;9346;52.006;4.720;2023-07-30T03:15:52;5.73;;;2.00;;
18435;SDS011;9346;52.006;4.720;2023-07-30T03:18:19;7.10;;;2.50;;
18435;SDS011;9346;52.006;4.720;2023-07-30T03:20:47;7.73;;;2.77;;
18435;SDS011;9346;52.006;4.720;2023-07-30T03:23:14;5.57;;;2.43;;
18435;SDS011;9346;52.006;4.720;2023-07-30T03:25:41;7.77;;;2.50;;
18435;SDS011;9346;52.006;4.720;2023-07-30T03:28:08;8.70;;;2.90;;
18435;SDS011;9346;52.006;4.720;2023-07-30T03:30:35;8.00;;;2.83;;
18435;SDS011;9346;52.006;4.720;2023-07-30T03:33:02;12.47;;;3.43;;
18435;SDS011;9346;52.006;4.720;2023-07-30T03:35:30;13.40;;;2.83;;
18435;SDS011;9346;52.006;4.720;2023-07-30T03:37:58;8.23;;;2.70;;
18435;SDS011;9346;52.006;4.720;2023-07-30T03:40:25;13.53;;;2.90;;
18435;SDS011;9346;52.006;4.720;2023-07-30T03:42:53;11.03;;;3.00;;
18435;SDS011;9346;52.006;4.720;2023-07-30T03:45:20;9.80;;;2.77;;
18435;SDS011;9346;52.006;4.720;2023-07-30T03:47:47;7.03;;;2.60;;
18435;SDS011;9346;52.006;4.720;2023-07-30T03:50:14;8.43;;;2.70;;
18435;SDS011;9346;52.006;4.720;2023-07-30T03:52:41;9.70;;;3.00;;
18435;SDS011;9346;52.006;4.720;2023-07-30T03:55:09;8.93;;;3.17;;
18435;SDS011;9346;52.006;4.720;2023-07-30T03:57:36;13.00;;;3.03;;
18435;SDS011;9346;52.006;4.720;2023-07-30T04:00:04;10.93;;;2.90;;
18435;SDS011;9346;52.006;4.720;2023-07-30T04:02:32;6.87;;;3.27;;
18435;SDS011;9346;52.006;4.720;2023-07-30T04:04:59;12.60;;;2.90;;
18435;SDS011;9346;52.006;4.720;2023-07-30T04:07:26;15.83;;;3.53;;
18435;SDS011;9346;52.006;4.720;2023-07-30T04:09:53;13.50;;;3.00;;
18435;SDS011;9346;52.006;4.720;2023-07-30T04:12:22;11.30;;;3.63;;
18435;SDS011;9346;52.006;4.720;2023-07-30T04:14:49;11.43;;;3.20;;
18435;SDS011;9346;52.006;4.720;2023-07-30T04:17:16;8.50;;;2.20;;
18435;SDS011;9346;52.006;4.720;2023-07-30T04:19:43;11.13;;;2.47;;
18435;SDS011;9346;52.006;4.720;2023-07-30T04:22:10;13.13;;;3.30;;
18435;SDS011;9346;52.006;4.720;2023-07-30T04:24:38;15.17;;;3.13;;
18435;SDS011;9346;52.006;4.720;2023-07-30T04:27:05;11.57;;;2.50;;
18435;SDS011;9346;52.006;4.720;2023-07-30T04:29:34;7.23;;;2.70;;
18435;SDS011;9346;52.006;4.720;2023-07-30T04:32:01;10.27;;;2.50;;
18435;SDS011;9346;52.006;4.720;2023-07-30T04:34:28;10.83;;;2.70;;
18435;SDS011;9346;52.006;4.720;2023-07-30T04:36:55;8.47;;;2.90;;
18435;SDS011;9346;52.006;4.720;2023-07-30T04:39:23;10.93;;;3.00;;
18435;SDS011;9346;52.006;4.720;2023-07-30T04:41:50;14.83;;;2.97;;
18435;SDS011;9346;52.006;4.720;2023-07-30T04:44:17;7.97;;;2.43;;
18435;SDS011;9346;52.006;4.720;2023-07-30T04:46:45;12.27;;;2.73;;
18435;SDS011;9346;52.006;4.720;2023-07-30T04:49:13;10.10;;;2.90;;
18435;SDS011;9346;52.006;4.720;2023-07-30T04:51:40;9.53;;;2.83;;
18435;SDS011;9346;52.006;4.720;2023-07-30T04:54:07;14.37;;;3.70;;
18435;SDS011;9346;52.006;4.720;2023-07-30T04:56:34;5.93;;;2.67;;
18435;SDS011;9346;52.006;4.720;2023-07-30T04:59:01;9.70;;;2.67;;
18435;SDS011;9346;52.006;4.720;2023-07-30T05:01:28;11.27;;;2.80;;
18435;SDS011;9346;52.006;4.720;2023-07-30T05:03:57;8.73;;;3.43;;
18435;SDS011;9346;52.006;4.720;2023-07-30T05:06:24;12.20;;;3.40;;
18435;SDS011;9346;52.006;4.720;2023-07-30T05:08:51;11.37;;;3.03;;
18435;SDS011;9346;52.006;4.720;2023-07-30T05:11:19;14.10;;;3.30;;
18435;SDS011;9346;52.006;4.720;2023-07-30T05:13:46;11.33;;;2.83;;
18435;SDS011;9346;52.006;4.720;2023-07-30T05:16:13;10.50;;;3.17;;
18435;SDS011;9346;52.006;4.720;2023-07-30T05:18:40;12.67;;;3.40;;
18435;SDS011;9346;52.006;4.720;2023-07-30T05:21:09;10.23;;;2.67;;
18435;SDS011;9346;52.006;4.720;2023-07-30T05:23:35;11.47;;;2.87;;
18435;SDS011;9346;52.006;4.720;2023-07-30T05:26:03;12.13;;;3.43;;
18435;SDS011;9346;52.006;4.720;2023-07-30T05:28:29;13.90;;;2.93;;
18435;SDS011;9346;52.006;4.720;2023-07-30T05:30:58;11.53;;;3.63;;
18435;SDS011;9346;52.006;4.720;2023-07-30T05:33:24;12.07;;;3.47;;
18435;SDS011;9346;52.006;4.720;2023-07-30T05:35:51;4.30;;;3.47;;
18435;SDS011;9346;52.006;4.720;2023-07-30T05:38:20;10.93;;;3.53;;
18435;SDS011;9346;52.006;4.720;2023-07-30T05:40:47;13.50;;;3.93;;
18435;SDS011;9346;52.006;4.720;2023-07-30T05:43:14;13.83;;;3.23;;
18435;SDS011;9346;52.006;4.720;2023-07-30T05:45:41;10.90;;;3.10;;
18435;SDS011;9346;52.006;4.720;2023-07-30T05:48:08;7.33;;;3.37;;
18435;SDS011;9346;52.006;4.720;2023-07-30T05:50:35;11.00;;;3.63;;
18435;SDS011;9346;52.006;4.720;2023-07-30T05:53:02;11.50;;;3.50;;
18435;SDS011;9346;52.006;4.720;2023-07-30T05:55:31;12.63;;;3.70;;
18435;SDS011;9346;52.006;4.720;2023-07-30T05:57:58;11.40;;;3.00;;
18435;SDS011;9346;52.006;4.720;2023-07-30T06:00:25;5.47;;;2.60;;
18435;SDS011;9346;52.006;4.720;2023-07-30T06:02:51;12.13;;;2.93;;
18435;SDS011;9346;52.006;4.720;2023-07-30T06:05:18;12.37;;;3.87;;
18435;SDS011;9346;52.006;4.720;2023-07-30T06:07:45;8.50;;;3.53;;
18435;SDS011;9346;52.006;4.720;2023-07-30T06:10:14;8.33;;;2.63;;
18435;SDS011;9346;52.006;4.720;2023-07-30T06:12:43;8.00;;;3.30;;
18435;SDS011;9346;52.006;4.720;2023-07-30T06:15:10;15.93;;;3.07;;
18435;SDS011;9346;52.006;4.720;2023-07-30T06:17:37;9.90;;;3.23;;
18435;SDS011;9346;52.006;4.720;2023-07-30T06:20:05;11.83;;;2.93;;
18435;SDS011;9346;52.006;4.720;2023-07-30T06:22:33;11.23;;;3.90;;
18435;SDS011;9346;52.006;4.720;2023-07-30T06:25:00;7.47;;;2.30;;
18435;SDS011;9346;52.006;4.720;2023-07-30T06:27:27;10.83;;;3.43;;
18435;SDS011;9346;52.006;4.720;2023-07-30T06:29:55;11.13;;;2.37;;
18435;SDS011;9346;52.006;4.720;2023-07-30T06:32:22;10.27;;;3.00;;
18435;SDS011;9346;52.006;4.720;2023-07-30T06:34:50;8.87;;;2.10;;
18435;SDS011;9346;52.006;4.720;2023-07-30T06:37:17;8.50;;;2.87;;
18435;SDS011;9346;52.006;4.720;2023-07-30T06:39:44;5.47;;;2.10;;
18435;SDS011;9346;52.006;4.720;2023-07-30T06:42:11;5.80;;;2.00;;
18435;SDS011;9346;52.006;4.720;2023-07-30T06:44:38;13.00;;;2.93;;
18435;SDS011;9346;52.006;4.720;2023-07-30T06:47:07;8.33;;;2.43;;
18435;SDS011;9346;52.006;4.720;2023-07-30T06:49:34;9.17;;;1.70;;
18435;SDS011;9346;52.006;4.720;2023-07-30T06:52:02;8.90;;;2.37;;
18435;SDS011;9346;52.006;4.720;2023-07-30T06:54:29;11.13;;;1.80;;
18435;SDS011;9346;52.006;4.720;2023-07-30T06:56:56;10.63;;;2.57;;
18435;SDS011;9346;52.006;4.720;2023-07-30T06:59:23;8.70;;;2.60;;
18435;SDS011;9346;52.006;4.720;2023-07-30T07:01:50;8.43;;;2.47;;
18435;SDS011;9346;52.006;4.720;2023-07-30T07:04:20;10.57;;;1.90;;
18435;SDS011;9346;52.006;4.720;2023-07-30T07:06:47;8.40;;;2.20;;
18435;SDS011;9346;52.006;4.720;2023-07-30T07:09:14;7.47;;;2.13;;
18435;SDS011;9346;52.006;4.720;2023-07-30T07:11:41;6.33;;;2.73;;
18435;SDS011;9346;52.006;4.720;2023-07-30T07:14:08;17.17;;;3.03;;
18435;SDS011;9346;52.006;4.720;2023-07-30T07:16:36;8.77;;;1.97;;
18435;SDS011;9346;52.006;4.720;2023-07-30T07:19:03;9.37;;;2.13;;
18435;SDS011;9346;52.006;4.720;2023-07-30T07:21:31;4.07;;;2.03;;
18435;SDS011;9346;52.006;4.720;2023-07-30T07:23:58;7.20;;;2.00;;
18435;SDS011;9346;52.006;4.720;2023-07-30T07:26:25;8.57;;;2.73;;
18435;SDS011;9346;52.006;4.720;2023-07-30T07:28:52;10.20;;;2.57;;
18435;SDS011;9346;52.006;4.720;2023-07-30T07:31:21;17.63;;;3.47;;
18435;SDS011;9346;52.006;4.720;2023-07-30T07:33:49;6.70;;;2.33;;
18435;SDS011;9346;52.006;4.720;2023-07-30T07:36:16;9.70;;;2.83;;
18435;SDS011;9346;52.006;4.720;2023-07-30T07:38:45;6.83;;;2.83;;
18435;SDS011;9346;52.006;4.720;2023-07-30T07:41:13;6.83;;;2.80;;
18435;SDS011;9346;52.006;4.720;2023-07-30T07:43:41;8.57;;;3.13;;
18435;SDS011;9346;52.006;4.720;2023-07-30T07:46:08;5.83;;;2.97;;
18435;SDS011;9346;52.006;4.720;2023-07-30T07:48:38;5.73;;;3.03;;
18435;SDS011;9346;52.006;4.720;2023-07-30T07:51:15;9.07;;;3.13;;
18435;SDS011;9346;52.006;4.720;2023-07-30T07:53:42;6.53;;;2.10;;
18435;SDS011;9346;52.006;4.720;2023-07-30T07:56:11;5.97;;;2.23;;
18435;SDS011;9346;52.006;4.720;2023-07-30T07:58:38;6.87;;;2.40;;
18435;SDS011;9346;52.006;4.720;2023-07-30T08:01:08;9.03;;;2.20;;
18435;SDS011;9346;52.006;4.720;2023-07-30T08:03:35;6.50;;;2.90;;
18435;SDS011;9346;52.006;4.720;2023-07-30T08:06:03;5.90;;;2.00;;
18435;SDS011;9346;52.006;4.720;2023-07-30T08:08:31;6.90;;;1.90;;
18435;SDS011;9346;52.006;4.720;2023-07-30T08:10:58;3.83;;;2.30;;
18435;SDS011;9346;52.006;4.720;2023-07-30T08:13:33;4.13;;;2.00;;
18435;SDS011;9346;52.006;4.720;2023-07-30T08:16:00;4.80;;;2.10;;
18435;SDS011;9346;52.006;4.720;2023-07-30T08:18:27;3.37;;;1.73;;
18435;SDS011;9346;52.006;4.720;2023-07-30T08:20:54;4.93;;;1.77;;
18435;SDS011;9346;52.006;4.720;2023-07-30T08:23:22;5.33;;;1.70;;
18435;SDS011;9346;52.006;4.720;2023-07-30T08:25:49;5.60;;;1.97;;
18435;SDS011;9346;52.006;4.720;2023-07-30T08:28:16;7.77;;;1.83;;
18435;SDS011;9346;52.006;4.720;2023-07-30T08:30:45;4.47;;;1.83;;
18435;SDS011;9346;52.006;4.720;2023-07-30T08:33:12;4.63;;;1.40;;
18435;SDS011;9346;52.006;4.720;2023-07-30T08:35:39;4.97;;;1.63;;
18435;SDS011;9346;52.006;4.720;2023-07-30T08:38:06;5.47;;;1.27;;
18435;SDS011;9346;52.006;4.720;2023-07-30T08:40:33;4.03;;;1.20;;
18435;SDS011;9346;52.006;4.720;2023-07-30T08:43:02;4.77;;;1.50;;
18435;SDS011;9346;52.006;4.720;2023-07-30T08:45:29;6.47;;;1.90;;
18435;SDS011;9346;52.006;4.720;2023-07-30T08:47:58;6.10;;;1.30;;
18435;SDS011;9346;52.006;4.720;2023-07-30T08:50:25;2.40;;;0.87;;
18435;SDS011;9346;52.006;4.720;2023-07-30T08:52:53;1.87;;;1.23;;
18435;SDS011;9346;52.006;4.720;2023-07-30T08:55:21;1.87;;;1.00;;
18435;SDS011;9346;52.006;4.720;2023-07-30T08:57:52;5.33;;;1.37;;
18435;SDS011;9346;52.006;4.720;2023-07-30T09:00:20;4.37;;;1.20;;
18435;SDS011;9346;52.006;4.720;2023-07-30T09:02:54;5.43;;;1.30;;
18435;SDS011;9346;52.006;4.720;2023-07-30T09:05:26;4.67;;;1.17;;
18435;SDS011;9346;52.006;4.720;2023-07-30T09:07:54;1.87;;;1.00;;
18435;SDS011;9346;52.006;4.720;2023-07-30T09:10:21;4.00;;;0.90;;
18435;SDS011;9346;52.006;4.720;2023-07-30T09:12:52;5.50;;;0.90;;
18435;SDS011;9346;52.006;4.720;2023-07-30T09:15:19;3.97;;;1.00;;
18435;SDS011;9346;52.006;4.720;2023-07-30T09:17:55;6.63;;;1.17;;
18435;SDS011;9346;52.006;4.720;2023-07-30T09:20:24;3.50;;;1.00;;
18435;SDS011;9346;52.006;4.720;2023-07-30T09:22:51;4.17;;;1.63;;
18435;SDS011;9346;52.006;4.720;2023-07-30T09:25:18;6.00;;;1.47;;
18435;SDS011;9346;52.006;4.720;2023-07-30T09:27:47;4.23;;;1.00;;
18435;SDS011;9346;52.006;4.720;2023-07-30T09:30:15;1.73;;;1.10;;
18435;SDS011;9346;52.006;4.720;2023-07-30T09:32:50;3.03;;;1.27;;
18435;SDS011;9346;52.006;4.720;2023-07-30T09:35:20;4.70;;;1.23;;
18435;SDS011;9346;52.006;4.720;2023-07-30T09:37:49;1.80;;;0.93;;
18435;SDS011;9346;52.006;4.720;2023-07-30T09:40:17;2.83;;;1.40;;
18435;SDS011;9346;52.006;4.720;2023-07-30T09:42:45;2.73;;;1.10;;
18435;SDS011;9346;52.006;4.720;2023-07-30T09:45:17;3.30;;;1.10;;
18435;SDS011;9346;52.006;4.720;2023-07-30T09:47:50;11.37;;;1.70;;
18435;SDS011;9346;52.006;4.720;2023-07-30T09:50:20;1.97;;;0.93;;
18435;SDS011;9346;52.006;4.720;2023-07-30T09:52:47;4.10;;;1.23;;
18435;SDS011;9346;52.006;4.720;2023-07-30T09:55:15;3.07;;;1.23;;
18435;SDS011;9346;52.006;4.720;2023-07-30T09:57:43;2.07;;;0.90;;
18435;SDS011;9346;52.006;4.720;2023-07-30T10:00:11;1.67;;;0.80;;
18435;SDS011;9346;52.006;4.720;2023-07-30T10:02:39;3.03;;;1.00;;
18435;SDS011;9346;52.006;4.720;2023-07-30T10:05:10;3.87;;;1.10;;
18435;SDS011;9346;52.006;4.720;2023-07-30T10:07:40;3.97;;;1.37;;
18435;SDS011;9346;52.006;4.720;2023-07-30T10:10:13;3.00;;;1.10;;
18435;SDS011;9346;52.006;4.720;2023-07-30T10:12:41;2.63;;;0.80;;
18435;SDS011;9346;52.006;4.720;2023-07-30T10:15:10;2.27;;;0.90;;
18435;SDS011;9346;52.006;4.720;2023-07-30T10:17:37;5.63;;;1.43;;
18435;SDS011;9346;52.006;4.720;2023-07-30T10:20:22;3.27;;;0.90;;
18435;SDS011;9346;52.006;4.720;2023-07-30T10:22:52;2.67;;;0.90;;
18435;SDS011;9346;52.006;4.720;2023-07-30T10:25:21;1.30;;;0.80;;
18435;SDS011;9346;52.006;4.720;2023-07-30T10:27:49;9.17;;;1.27;;
18435;SDS011;9346;52.006;4.720;2023-07-30T10:30:17;3.43;;;1.10;;
18435;SDS011;9346;52.006;4.720;2023-07-30T10:32:59;2.17;;;0.90;;
18435;SDS011;9346;52.006;4.720;2023-07-30T10:35:34;3.33;;;1.10;;
18435;SDS011;9346;52.006;4.720;2023-07-30T10:38:13;2.70;;;0.80;;
18435;SDS011;9346;52.006;4.720;2023-07-30T10:40:41;2.90;;;0.90;;
18435;SDS011;9346;52.006;4.720;2023-07-30T10:43:15;4.67;;;1.20;;
18435;SDS011;9346;52.006;4.720;2023-07-30T10:45:48;1.53;;;0.70;;
18435;SDS011;9346;52.006;4.720;2023-07-30T10:48:17;2.67;;;0.73;;
18435;SDS011;9346;52.006;4.720;2023-07-30T10:50:45;2.07;;;0.97;;
18435;SDS011;9346;52.006;4.720;2023-07-30T10:53:16;2.93;;;0.93;;
18435;SDS011;9346;52.006;4.720;2023-07-30T10:55:43;3.40;;;1.17;;
18435;SDS011;9346;52.006;4.720;2023-07-30T10:58:11;6.63;;;1.17;;
18435;SDS011;9346;52.006;4.720;2023-07-30T11:00:39;2.90;;;0.90;;
18435;SDS011;9346;52.006;4.720;2023-07-30T11:03:06;5.40;;;1.00;;
18435;SDS011;9346;52.006;4.720;2023-07-30T11:05:33;1.43;;;0.70;;
18435;SDS011;9346;52.006;4.720;2023-07-30T11:08:00;1.57;;;0.70;;
18435;SDS011;9346;52.006;4.720;2023-07-30T11:10:29;7.03;;;1.03;;
18435;SDS011;9346;52.006;4.720;2023-07-30T11:12:56;1.63;;;0.63;;
18435;SDS011;9346;52.006;4.720;2023-07-30T11:15:24;1.33;;;0.67;;
18435;SDS011;9346;52.006;4.720;2023-07-30T11:17:51;0.93;;;0.53;;
18435;SDS011;9346;52.006;4.720;2023-07-30T11:20:22;3.83;;;1.10;;
18435;SDS011;9346;52.006;4.720;2023-07-30T11:22:52;1.10;;;0.90;;
18435;SDS011;9346;52.006;4.720;2023-07-30T11:25:19;1.30;;;0.77;;
18435;SDS011;9346;52.006;4.720;2023-07-30T11:27:48;2.60;;;0.90;;
18435;SDS011;9346;52.006;4.720;2023-07-30T11:30:16;2.53;;;0.80;;
18435;SDS011;9346;52.006;4.720;2023-07-30T11:32:44;4.73;;;0.90;;
18435;SDS011;9346;52.006;4.720;2023-07-30T11:35:11;1.80;;;0.80;;
18435;SDS011;9346;52.006;4.720;2023-07-30T11:37:41;1.23;;;0.53;;
18435;SDS011;9346;52.006;4.720;2023-07-30T11:40:09;3.20;;;0.97;;
18435;SDS011;9346;52.006;4.720;2023-07-30T11:42:37;2.93;;;0.93;;
18435;SDS011;9346;52.006;4.720;2023-07-30T11:45:18;2.73;;;1.13;;
18435;SDS011;9346;52.006;4.720;2023-07-30T11:47:46;1.50;;;0.77;;
18435;SDS011;9346;52.006;4.720;2023-07-30T11:50:13;2.63;;;0.93;;
18435;SDS011;9346;52.006;4.720;2023-07-30T11:52:53;1.80;;;0.60;;
18435;SDS011;9346;52.006;4.720;2023-07-30T11:55:21;1.07;;;0.60;;
18435;SDS011;9346;52.006;4.720;2023-07-30T11:57:49;1.10;;;0.83;;
18435;SDS011;9346;52.006;4.720;2023-07-30T12:00:21;3.63;;;1.07;;
18435;SDS011;9346;52.006;4.720;2023-07-30T12:02:48;1.93;;;1.00;;
18435;SDS011;9346;52.006;4.720;2023-07-30T12:05:16;3.47;;;0.70;;
18435;SDS011;9346;52.006;4.720;2023-07-30T12:07:47;3.40;;;1.00;;
18435;SDS011;9346;52.006;4.720;2023-07-30T12:10:14;5.27;;;0.73;;
18435;SDS011;9346;52.006;4.720;2023-07-30T12:12:44;1.27;;;0.80;;
18435;SDS011;9346;52.006;4.720;2023-07-30T12:15:11;0.57;;;0.50;;
18435;SDS011;9346;52.006;4.720;2023-07-30T12:17:41;3.53;;;1.10;;
18435;SDS011;9346;52.006;4.720;2023-07-30T12:20:08;2.60;;;0.83;;
18435;SDS011;9346;52.006;4.720;2023-07-30T12:22:37;2.00;;;0.60;;
18435;SDS011;9346;52.006;4.720;2023-07-30T12:25:08;0.80;;;0.60;;
18435;SDS011;9346;52.006;4.720;2023-07-30T12:27:36;1.67;;;0.70;;
18435;SDS011;9346;52.006;4.720;2023-07-30T12:30:03;3.33;;;0.70;;
18435;SDS011;9346;52.006;4.720;2023-07-30T12:32:31;1.03;;;0.50;;
18435;SDS011;9346;52.006;4.720;2023-07-30T12:34:59;1.03;;;0.47;;
18435;SDS011;9346;52.006;4.720;2023-07-30T12:37:26;2.07;;;0.80;;
18435;SDS011;9346;52.006;4.720;2023-07-30T12:39:54;0.60;;;0.47;;
18435;SDS011;9346;52.006;4.720;2023-07-30T12:42:21;2.20;;;0.50;;
18435;SDS011;9346;52.006;4.720;2023-07-30T12:44:48;0.90;;;0.70;;
18435;SDS011;9346;52.006;4.720;2023-07-30T12:47:15;4.07;;;0.90;;
18435;SDS011;9346;52.006;4.720;2023-07-30T12:49:42;1.87;;;0.70;;
18435;SDS011;9346;52.006;4.720;2023-07-30T12:52:13;0.60;;;0.50;;
18435;SDS011;9346;52.006;4.720;2023-07-30T12:54:40;1.60;;;0.70;;
18435;SDS011;9346;52.006;4.720;2023-07-30T12:57:07;2.03;;;0.50;;
18435;SDS011;9346;52.006;4.720;2023-07-30T12:59:34;2.53;;;0.73;;
18435;SDS011;9346;52.006;4.720;2023-07-30T13:02:01;0.87;;;0.50;;
18435;SDS011;9346;52.006;4.720;2023-07-30T13:04:29;0.83;;;0.77;;
18435;SDS011;9346;52.006;4.720;2023-07-30T13:06:56;0.93;;;0.67;;
18435;SDS011;9346;52.006;4.720;2023-07-30T13:09:25;2.60;;;0.73;;
18435;SDS011;9346;52.006;4.720;2023-07-30T13:11:52;2.83;;;0.90;;
18435;SDS011;9346;52.006;4.720;2023-07-30T13:14:19;2.00;;;0.87;;
18435;SDS011;9346;52.006;4.720;2023-07-30T13:16:50;5.27;;;0.70;;
18435;SDS011;9346;52.006;4.720;2023-07-30T13:19:17;4.83;;;1.20;;
18435;SDS011;9346;52.006;4.720;2023-07-30T13:21:43;1.17;;;0.60;;
18435;SDS011;9346;52.006;4.720;2023-07-30T13:24:10;1.03;;;0.60;;
18435;SDS011;9346;52.006;4.720;2023-07-30T13:26:39;1.60;;;0.80;;
18435;SDS011;9346;52.006;4.720;2023-07-30T13:29:06;3.57;;;0.60;;
18435;SDS011;9346;52.006;4.720;2023-07-30T13:31:33;5.03;;;1.20;;
18435;SDS011;9346;52.006;4.720;2023-07-30T13:34:00;3.43;;;0.77;;
18435;SDS011;9346;52.006;4.720;2023-07-30T13:36:27;2.70;;;0.77;;
18435;SDS011;9346;52.006;4.720;2023-07-30T13:38:54;3.77;;;0.90;;
18435;SDS011;9346;52.006;4.720;2023-07-30T13:41:21;4.00;;;1.10;;
18435;SDS011;9346;52.006;4.720;2023-07-30T13:43:50;3.43;;;0.80;;
18435;SDS011;9346;52.006;4.720;2023-07-30T13:46:17;2.80;;;0.90;;
18435;SDS011;9346;52.006;4.720;2023-07-30T13:48:44;2.67;;;0.90;;
18435;SDS011;9346;52.006;4.720;2023-07-30T13:51:12;1.57;;;0.90;;
18435;SDS011;9346;52.006;4.720;2023-07-30T13:53:38;1.80;;;1.00;;
18435;SDS011;9346;52.006;4.720;2023-07-30T13:56:06;1.30;;;1.00;;
18435;SDS011;9346;52.006;4.720;2023-07-30T13:58:33;4.47;;;1.17;;
18435;SDS011;9346;52.006;4.720;2023-07-30T14:01:02;3.77;;;1.10;;
18435;SDS011;9346;52.006;4.720;2023-07-30T14:03:29;2.00;;;1.00;;
18435;SDS011;9346;52.006;4.720;2023-07-30T14:05:55;3.37;;;1.20;;
18435;SDS011;9346;52.006;4.720;2023-07-30T14:08:22;5.20;;;1.63;;
18435;SDS011;9346;52.006;4.720;2023-07-30T14:10:50;2.70;;;1.03;;
18435;SDS011;9346;52.006;4.720;2023-07-30T14:13:17;7.43;;;1.63;;
18435;SDS011;9346;52.006;4.720;2023-07-30T14:15:44;4.10;;;1.00;;
18435;SDS011;9346;52.006;4.720;2023-07-30T14:18:13;6.00;;;1.20;;
18435;SDS011;9346;52.006;4.720;2023-07-30T14:20:41;6.73;;;1.57;;
18435;SDS011;9346;52.006;4.720;2023-07-30T14:23:08;3.60;;;1.07;;
18435;SDS011;9346;52.006;4.720;2023-07-30T14:25:34;3.90;;;1.20;;
18435;SDS011;9346;52.006;4.720;2023-07-30T14:28:01;2.50;;;0.90;;
18435;SDS011;9346;52.006;4.720;2023-07-30T14:30:29;1.97;;;0.90;;
18435;SDS011;9346;52.006;4.720;2023-07-30T14:32:56;1.20;;;0.73;;
18435;SDS011;9346;52.006;4.720;2023-07-30T14:35:25;2.77;;;1.10;;
18435;SDS011;9346;52.006;4.720;2023-07-30T14:37:52;4.73;;;1.20;;
18435;SDS011;9346;52.006;4.720;2023-07-30T14:40:19;2.87;;;0.93;;
18435;SDS011;9346;52.006;4.720;2023-07-30T14:42:48;4.67;;;1.03;;
18435;SDS011;9346;52.006;4.720;2023-07-30T14:45:15;5.90;;;1.70;;
18435;SDS011;9346;52.006;4.720;2023-07-30T14:47:42;5.07;;;1.63;;
18435;SDS011;9346;52.006;4.720;2023-07-30T14:50:10;3.73;;;0.90;;
18435;SDS011;9346;52.006;4.720;2023-07-30T14:52:38;6.20;;;1.43;;
18435;SDS011;9346;52.006;4.720;2023-07-30T14:55:06;4.17;;;1.40;;
18435;SDS011;9346;52.006;4.720;2023-07-30T14:57:33;3.53;;;1.20;;
18435;SDS011;9346;52.006;4.720;2023-07-30T15:00:00;3.47;;;1.67;;
18435;SDS011;9346;52.006;4.720;2023-07-30T15:02:27;9.70;;;2.03;;
18435;SDS011;9346;52.006;4.720;2023-07-30T15:04:54;4.47;;;1.90;;